Time;durP1;ratioP1;P1;durP2;ratioP2;P2;SDS_P1;SDS_P2;PMS_P1;PMS_P2;Temp;Humidity;BMP_temperature;BMP_pressure;BME280_temperature;BME280_humidity;BME280_pressure;Samples;Min_cycle;Max_cycle;Signal;HPM_P1;HPM_P2
2022/06/11 00:00:55;;;;;;;5.80;2.00;;;22.20;91.20;;;;;;5083877;28;20499;-82
2022/06/11 00:03:22;;;;;;;3.17;2.40;;;22.40;90.80;;;;;;5076129;28;20451;-83
2022/06/11 00:05:49;;;;;;;4.70;2.47;;;22.10;90.70;;;;;;5075403;28;21002;-82
2022/06/11 00:08:20;;;;;;;2.80;2.30;;;22.20;91.10;;;;;;5075328;28;20937;-82
2022/06/11 00:10:47;;;;;;;4.40;2.23;;;22.10;91.00;;;;;;5074554;28;20880;-81
2022/06/11 00:13:14;;;;;;;3.83;2.50;;;22.00;91.20;;;;;;5075141;28;20442;-82
2022/06/11 00:15:42;;;;;;;3.07;2.27;;;22.00;91.40;;;;;;5076111;28;20447;-82
2022/06/11 00:18:11;;;;;;;2.40;2.20;;;22.10;91.30;;;;;;5074840;28;20459;-82
2022/06/11 00:20:38;;;;;;;3.43;2.10;;;22.00;91.40;;;;;;5074380;28;20886;-83
2022/06/11 00:23:05;;;;;;;2.27;2.00;;;21.80;91.60;;;;;;5075586;28;20443;-82
2022/06/11 00:25:35;;;;;;;2.90;2.60;;;22.00;91.80;;;;;;5073837;28;20509;-83
2022/06/11 00:28:04;;;;;;;6.13;2.73;;;22.10;91.30;;;;;;5063498;28;20944;-82
2022/06/11 00:30:32;;;;;;;4.83;2.43;;;21.90;91.80;;;;;;5073358;28;20499;-83
2022/06/11 00:33:00;;;;;;;3.00;2.80;;;21.90;91.90;;;;;;5074606;28;20882;-83
2022/06/11 00:35:29;;;;;;;2.40;2.20;;;22.10;91.80;;;;;;5075683;28;20486;-83
2022/06/11 00:37:56;;;;;;;3.63;2.40;;;22.00;91.90;;;;;;5070671;28;20515;-84
2022/06/11 00:40:25;;;;;;;3.20;2.73;;;22.10;91.90;;;;;;5074323;28;20467;-83
2022/06/11 00:42:53;;;;;;;5.53;2.90;;;22.20;91.70;;;;;;5075029;28;20450;-83
2022/06/11 00:45:25;;;;;;;3.77;2.40;;;22.10;91.50;;;;;;5076777;28;21636;-83
2022/06/11 00:48:24;;;;;;;3.30;2.20;;;22.00;91.80;;;;;;5074752;28;20530;-83
2022/06/11 00:51:14;;;;;;;2.40;1.87;;;22.10;91.80;;;;;;5073576;28;20463;-84
2022/06/11 00:54:19;;;;;;;3.43;2.60;;;22.10;91.90;;;;;;5068288;28;20493;-82
2022/06/11 00:56:53;;;;;;;3.43;2.30;;;22.10;92.00;;;;;;5067179;28;20459;-82
2022/06/11 00:59:27;;;;;;;2.93;2.27;;;22.00;91.90;;;;;;5079372;28;20469;-83
2022/06/11 01:01:54;;;;;;;3.63;2.10;;;22.10;92.10;;;;;;5061752;28;20553;-83
2022/06/11 01:04:49;;;;;;;2.47;2.20;;;22.10;91.90;;;;;;5087798;28;20461;-83
2022/06/11 01:07:30;;;;;;;2.53;2.33;;;22.10;92.00;;;;;;5077770;28;20449;-82
2022/06/11 01:10:08;;;;;;;3.43;2.40;;;22.00;92.10;;;;;;5073062;28;20547;-83
2022/06/11 01:12:57;;;;;;;4.53;2.70;;;22.00;92.30;;;;;;5068174;28;20458;-83
2022/06/11 01:15:36;;;;;;;2.60;2.40;;;22.00;92.30;;;;;;5076524;28;20527;-83
2022/06/11 01:18:21;;;;;;;5.27;2.63;;;21.90;92.60;;;;;;5077757;28;20435;-82
2022/06/11 01:21:06;;;;;;;3.10;2.13;;;22.00;92.50;;;;;;5078082;28;20470;-83
2022/06/11 01:24:18;;;;;;;3.40;1.70;;;21.80;93.10;;;;;;5078798;28;20443;-83
2022/06/11 01:27:07;;;;;;;2.80;2.47;;;21.50;93.30;;;;;;5058948;28;20451;-83
2022/06/11 01:29:42;;;;;;;4.30;1.97;;;21.50;93.90;;;;;;5069924;28;20944;-83
2022/06/11 01:32:19;;;;;;;2.30;2.00;;;21.70;93.70;;;;;;5075568;28;20451;-83
2022/06/11 01:34:49;;;;;;;3.73;2.10;;;21.80;93.50;;;;;;5078439;28;20467;-82
2022/06/11 01:37:45;;;;;;;2.50;2.30;;;21.80;93.40;;;;;;5074693;28;20800;-83
2022/06/11 01:40:41;;;;;;;5.10;2.60;;;21.70;93.70;;;;;;5068106;28;20460;-80
2022/06/11 01:43:37;;;;;;;2.90;2.33;;;21.50;94.10;;;;;;5076633;28;20458;-83
2022/06/11 01:46:07;;;;;;;4.43;2.60;;;21.40;94.30;;;;;;5072567;28;21067;-83
2022/06/11 01:48:34;;;;;;;3.40;2.03;;;21.40;94.50;;;;;;5077869;28;20465;-82
2022/06/11 01:51:19;;;;;;;3.37;2.60;;;21.30;94.60;;;;;;5067345;28;20467;-82
2022/06/11 01:54:03;;;;;;;2.70;2.50;;;21.70;94.50;;;;;;5070787;28;21042;-83
2022/06/11 01:56:37;;;;;;;4.70;2.60;;;21.60;94.30;;;;;;5078054;28;20898;-83
2022/06/11 01:59:59;;;;;;;4.20;2.03;;;21.70;94.20;;;;;;5079440;28;20799;-84
2022/06/11 02:02:53;;;;;;;3.57;2.00;;;21.80;94.40;;;;;;5029317;28;20450;-84
2022/06/11 02:05:32;;;;;;;2.97;2.60;;;21.80;94.20;;;;;;5080374;28;20877;-83
2022/06/11 02:08:13;;;;;;;2.97;2.77;;;22.00;94.10;;;;;;5083120;28;20481;-83
2022/06/11 02:10:47;;;;;;;3.87;2.27;;;21.90;94.20;;;;;;5081032;28;20493;-82
2022/06/11 02:13:29;;;;;;;2.40;2.20;;;21.90;94.30;;;;;;5078003;28;20455;-83
2022/06/11 02:16:00;;;;;;;3.57;2.20;;;21.80;94.60;;;;;;5083249;28;20443;-83
2022/06/11 02:18:28;;;;;;;2.87;2.40;;;21.80;94.50;;;;;;5080838;28;20565;-83
2022/06/11 02:21:03;;;;;;;3.97;2.50;;;21.70;94.80;;;;;;5077191;28;20486;-83
2022/06/11 02:23:39;;;;;;;4.63;2.60;;;21.60;94.90;;;;;;5069682;28;20446;-82
2022/06/11 02:26:17;;;;;;;4.80;2.43;;;21.60;95.00;;;;;;5081500;28;20440;-83
2022/06/11 02:28:46;;;;;;;3.00;2.40;;;21.60;95.10;;;;;;5079586;28;20454;-83
2022/06/11 02:31:18;;;;;;;4.73;2.30;;;21.50;95.10;;;;;;5080760;28;21003;-83
2022/06/11 02:33:45;;;;;;;4.40;2.20;;;21.50;95.20;;;;;;5083516;28;20456;-84
2022/06/11 02:36:18;;;;;;;3.63;2.50;;;21.30;95.50;;;;;;5080735;28;20451;-84
2022/06/11 02:38:45;;;;;;;5.10;2.77;;;21.30;95.80;;;;;;5078792;28;20547;-83
2022/06/11 02:41:17;;;;;;;4.70;2.60;;;21.30;95.90;;;;;;5079719;28;20455;-84
2022/06/11 02:43:44;;;;;;;4.00;2.67;;;21.30;96.00;;;;;;5078171;28;20447;-83
2022/06/11 02:48:57;;;;;;;3.03;2.70;;;21.30;96.20;;;;;;5079711;28;20473;-82
2022/06/11 02:51:25;;;;;;;4.33;2.77;;;21.40;96.10;;;;;;5077884;28;20476;-83
2022/06/11 02:53:53;;;;;;;6.80;2.60;;;21.50;95.90;;;;;;5087412;28;20897;-83
2022/06/11 02:56:19;;;;;;;3.50;2.30;;;21.70;95.90;;;;;;5078156;28;21196;-84
2022/06/11 02:58:46;;;;;;;6.13;2.60;;;21.80;95.80;;;;;;5076054;28;20944;-84
2022/06/11 03:01:17;;;;;;;3.93;2.37;;;21.80;95.30;;;;;;5071565;28;20467;-84
2022/06/11 03:03:45;;;;;;;3.73;2.80;;;21.70;95.40;;;;;;5075932;28;20515;-83
2022/06/11 03:06:12;;;;;;;2.93;2.60;;;21.80;95.50;;;;;;5075843;28;20462;-82
2022/06/11 03:08:41;;;;;;;3.40;2.40;;;21.80;95.50;;;;;;5075100;28;20448;-84
2022/06/11 03:11:08;;;;;;;2.67;2.43;;;21.50;95.60;;;;;;5068741;28;20505;-82
2022/06/11 03:13:35;;;;;;;5.23;2.80;;;21.50;96.00;;;;;;5066364;28;20451;-84
2022/06/11 03:16:02;;;;;;;3.40;2.43;;;21.60;95.80;;;;;;5075478;28;20483;-81
2022/06/11 03:18:29;;;;;;;4.40;3.20;;;21.70;95.80;;;;;;5070422;28;20452;-82
2022/06/11 03:20:57;;;;;;;2.83;2.63;;;21.70;95.80;;;;;;5074905;28;20472;-83
2022/06/11 03:23:23;;;;;;;3.90;2.67;;;21.50;96.00;;;;;;5075930;28;20517;-82
2022/06/11 03:25:50;;;;;;;8.10;3.47;;;21.50;96.20;;;;;;5067263;28;20805;-83
2022/06/11 03:28:23;;;;;;;2.23;2.00;;;21.40;96.30;;;;;;5074771;28;20968;-83
2022/06/11 03:30:51;;;;;;;6.00;2.47;;;21.40;96.50;;;;;;5071870;28;21200;-82
2022/06/11 03:33:18;;;;;;;3.03;2.73;;;21.50;96.60;;;;;;5078746;28;20956;-82
2022/06/11 03:35:46;;;;;;;5.17;2.90;;;21.50;96.40;;;;;;5077254;28;20653;-83
2022/06/11 03:38:15;;;;;;;5.40;2.53;;;21.50;96.40;;;;;;5073658;28;20445;-83
2022/06/11 03:40:42;;;;;;;3.13;2.80;;;21.50;96.20;;;;;;5076254;28;20459;-83
2022/06/11 03:43:09;;;;;;;4.00;2.90;;;21.40;96.60;;;;;;5076218;28;20447;-82
2022/06/11 03:45:36;;;;;;;3.27;2.83;;;21.20;96.90;;;;;;5069921;28;20977;-82
2022/06/11 03:48:04;;;;;;;3.93;2.90;;;21.20;97.60;;;;;;5071768;28;20445;-82
2022/06/11 03:50:35;;;;;;;4.40;2.77;;;21.20;98.10;;;;;;5074068;28;20468;-83
2022/06/11 03:53:06;;;;;;;4.97;3.03;;;21.20;98.00;;;;;;5073125;28;20452;-83
2022/06/11 03:55:34;;;;;;;7.20;3.07;;;21.20;97.90;;;;;;5070751;28;20479;-83
2022/06/11 03:58:01;;;;;;;2.90;2.53;;;21.30;97.70;;;;;;5075401;28;20451;-82
2022/06/11 04:03:17;;;;;;;5.23;2.57;;;21.70;97.10;;;;;;5068432;28;20452;-83
2022/06/11 04:05:45;;;;;;;4.27;2.70;;;21.60;97.10;;;;;;5075646;28;20455;-83
2022/06/11 04:08:15;;;;;;;6.40;3.00;;;21.50;97.70;;;;;;5076287;28;20460;-83
2022/06/11 04:10:43;;;;;;;3.27;2.70;;;21.60;97.70;;;;;;5070732;28;21103;-81
2022/06/11 04:13:10;;;;;;;3.40;2.80;;;21.60;97.70;;;;;;5067053;28;20822;-81
2022/06/11 04:15:39;;;;;;;4.67;2.90;;;21.50;97.70;;;;;;5078167;28;20510;-81
2022/06/11 04:18:17;;;;;;;5.10;2.80;;;21.60;98.00;;;;;;5082003;28;20547;-83
2022/06/11 04:20:44;;;;;;;3.70;2.60;;;21.40;98.60;;;;;;5068665;28;20497;-82
2022/06/11 04:23:10;;;;;;;5.73;3.30;;;21.20;99.50;;;;;;5073901;28;20451;-82
2022/06/11 04:25:37;;;;;;;2.90;2.60;;;21.50;98.70;;;;;;5073074;28;20474;-82
2022/06/11 04:28:04;;;;;;;4.20;3.00;;;21.50;98.20;;;;;;5069562;28;20541;-82
2022/06/11 04:30:30;;;;;;;3.43;3.17;;;21.60;99.10;;;;;;5072624;28;20487;-82
2022/06/11 04:32:57;;;;;;;4.43;2.93;;;21.60;99.60;;;;;;5073965;28;20467;-81
2022/06/11 04:35:24;;;;;;;4.80;3.10;;;21.50;99.50;;;;;;5087624;28;20549;-82
2022/06/11 04:37:50;;;;;;;4.30;3.63;;;21.60;98.80;;;;;;5088246;28;20448;-82
2022/06/11 04:40:18;;;;;;;3.80;3.43;;;21.50;98.80;;;;;;5092150;28;20471;-83
2022/06/11 04:42:45;;;;;;;5.70;3.43;;;21.60;99.50;;;;;;5090998;28;20452;-82
2022/06/11 04:45:12;;;;;;;3.60;3.20;;;21.60;99.50;;;;;;5082141;28;20530;-82
2022/06/11 04:47:39;;;;;;;3.77;3.10;;;21.60;99.70;;;;;;5074456;28;20520;-82
2022/06/11 04:50:13;;;;;;;3.60;3.10;;;21.40;99.90;;;;;;5074213;28;20474;-83
2022/06/11 04:52:40;;;;;;;5.23;3.50;;;21.50;99.90;;;;;;5074790;28;20451;-83
2022/06/11 04:55:09;;;;;;;4.57;3.83;;;21.40;99.90;;;;;;5072846;28;20475;-82
2022/06/11 04:57:36;;;;;;;5.27;3.37;;;21.40;99.90;;;;;;5074159;28;20447;-85
2022/06/11 05:00:05;;;;;;;5.37;3.77;;;21.60;99.90;;;;;;5073598;28;20470;-84
2022/06/11 05:02:32;;;;;;;3.53;3.23;;;21.60;99.50;;;;;;5074921;28;20443;-84
2022/06/11 05:04:58;;;;;;;5.20;3.43;;;21.70;99.00;;;;;;5073533;28;20470;-84
2022/06/11 05:07:25;;;;;;;3.33;3.13;;;21.80;98.80;;;;;;5075601;28;20450;-84
2022/06/11 05:09:52;;;;;;;3.77;3.30;;;21.70;98.70;;;;;;5074564;28;20452;-83
2022/06/11 05:12:19;;;;;;;6.83;3.67;;;21.60;98.80;;;;;;5089420;28;20423;-82
2022/06/11 05:14:45;;;;;;;3.20;2.90;;;21.70;98.90;;;;;;5093304;28;20459;-83
2022/06/11 05:17:12;;;;;;;5.83;3.77;;;21.70;99.30;;;;;;5091186;28;20474;-81
2022/06/11 05:19:38;;;;;;;5.40;3.27;;;21.70;99.10;;;;;;5077788;28;20444;-81
2022/06/11 05:22:07;;;;;;;4.27;3.70;;;21.60;99.20;;;;;;5063069;28;21048;-81
2022/06/11 05:24:34;;;;;;;3.57;3.17;;;21.70;99.40;;;;;;5074984;28;20451;-82
2022/06/11 05:27:06;;;;;;;3.63;3.27;;;21.60;99.40;;;;;;5074981;28;20439;-82
2022/06/11 05:29:37;;;;;;;5.90;3.77;;;21.60;99.30;;;;;;5075932;28;20444;-82
2022/06/11 05:32:04;;;;;;;4.13;3.67;;;21.60;99.30;;;;;;5084692;28;20452;-82
2022/06/11 05:34:31;;;;;;;7.00;4.33;;;21.50;99.90;;;;;;5098024;28;20457;-82
2022/06/11 05:36:58;;;;;;;3.60;3.30;;;21.20;99.50;;;;;;5097513;28;20432;-82
2022/06/11 05:39:26;;;;;;;4.53;3.37;;;21.00;99.90;;;;;;5087319;28;20444;-82
2022/06/11 05:41:53;;;;;;;4.30;3.50;;;21.20;99.90;;;;;;5090499;28;20463;-83
2022/06/11 05:44:22;;;;;;;7.57;3.67;;;21.50;99.90;;;;;;5085789;28;20451;-82
2022/06/11 05:46:49;;;;;;;3.87;3.37;;;21.40;99.60;;;;;;5087119;28;20579;-81
2022/06/11 05:49:20;;;;;;;5.60;3.37;;;21.30;99.90;;;;;;5079867;28;20451;-81
2022/06/11 05:51:51;;;;;;;3.80;3.23;;;21.70;99.30;;;;;;5076620;28;20973;-81
2022/06/11 05:54:25;;;;;;;4.47;3.70;;;21.60;99.30;;;;;;5076729;28;20458;-81
2022/06/11 05:56:53;;;;;;;7.10;4.27;;;21.70;99.30;;;;;;5074263;28;20442;-82
2022/06/11 05:59:26;;;;;;;5.53;3.60;;;21.70;99.30;;;;;;5076782;28;20926;-82
2022/06/11 06:01:54;;;;;;;4.93;3.50;;;21.70;99.40;;;;;;5089011;28;20529;-81
2022/06/11 06:04:20;;;;;;;4.23;3.13;;;21.70;99.10;;;;;;5073965;28;20465;-82
2022/06/11 06:06:47;;;;;;;4.37;3.53;;;21.90;98.70;;;;;;5074741;28;20476;-82
2022/06/11 06:09:14;;;;;;;6.70;3.50;;;21.90;98.40;;;;;;5076173;28;20458;-82
2022/06/11 06:11:41;;;;;;;5.00;3.40;;;21.80;98.80;;;;;;5073946;28;20461;-81
2022/06/11 06:14:10;;;;;;;4.37;3.73;;;21.80;98.90;;;;;;5072635;28;20455;-82
2022/06/11 06:16:36;;;;;;;4.33;3.10;;;21.70;98.80;;;;;;5073733;28;20475;-84
2022/06/11 06:19:03;;;;;;;3.47;3.17;;;21.40;99.00;;;;;;5075053;28;20444;-82
2022/06/11 06:21:34;;;;;;;5.00;3.40;;;21.60;99.20;;;;;;5075583;28;20482;-82
2022/06/11 06:24:01;;;;;;;4.60;3.47;;;21.80;98.70;;;;;;5076027;28;20458;-82
2022/06/11 06:26:28;;;;;;;6.13;3.53;;;21.80;98.00;;;;;;5075957;28;20469;-82
2022/06/11 06:28:54;;;;;;;7.73;3.20;;;22.10;97.50;;;;;;5076560;28;20979;-82
2022/06/11 06:31:21;;;;;;;5.47;3.77;;;22.10;97.20;;;;;;5088301;28;20480;-83
2022/06/11 06:33:50;;;;;;;5.00;3.30;;;21.90;97.00;;;;;;5077056;28;20451;-83
2022/06/11 06:36:17;;;;;;;3.70;3.40;;;21.90;97.40;;;;;;5080662;28;20586;-82
2022/06/11 06:38:45;;;;;;;5.83;4.50;;;22.20;97.00;;;;;;5080417;28;20462;-83
2022/06/11 06:41:13;;;;;;;3.77;3.37;;;22.50;96.30;;;;;;5074254;28;20475;-82
2022/06/11 06:43:40;;;;;;;4.90;3.07;;;22.60;96.40;;;;;;5075059;28;20961;-82
2022/06/11 06:46:07;;;;;;;5.23;3.60;;;22.50;96.70;;;;;;5075246;28;20540;-82
2022/06/11 06:48:34;;;;;;;4.63;3.33;;;22.60;96.30;;;;;;5070997;28;20513;-82
2022/06/11 06:51:01;;;;;;;4.40;2.83;;;22.50;96.50;;;;;;5068832;28;20988;-81
2022/06/11 06:53:29;;;;;;;6.43;4.10;;;22.60;96.90;;;;;;5075647;28;20478;-83
2022/06/11 06:55:55;;;;;;;9.97;3.97;;;22.70;97.50;;;;;;5075012;28;20953;-83
2022/06/11 06:58:22;;;;;;;3.73;3.13;;;22.90;96.80;;;;;;5072159;28;20483;-83
2022/06/11 07:00:50;;;;;;;4.03;3.17;;;23.00;96.10;;;;;;5075061;28;20482;-82
2022/06/11 07:03:17;;;;;;;3.50;3.10;;;23.10;95.90;;;;;;5074694;28;20447;-83
2022/06/11 07:05:44;;;;;;;4.43;3.43;;;23.10;95.30;;;;;;5074238;28;20610;-82
2022/06/11 07:08:13;;;;;;;3.90;3.00;;;23.10;95.60;;;;;;5073709;28;20452;-82
2022/06/11 07:10:45;;;;;;;5.33;2.80;;;23.00;95.60;;;;;;5074291;28;20478;-83
2022/06/11 07:13:11;;;;;;;5.67;3.00;;;23.40;94.40;;;;;;5074687;28;20451;-83
2022/06/11 07:15:41;;;;;;;5.13;3.70;;;23.30;94.30;;;;;;5073213;28;20575;-83
2022/06/11 07:18:14;;;;;;;3.73;2.20;;;23.70;93.40;;;;;;5075588;28;20505;-82
2022/06/11 07:20:42;;;;;;;5.03;3.60;;;23.60;92.80;;;;;;5075356;28;20461;-84
2022/06/11 07:23:15;;;;;;;4.03;2.30;;;23.60;92.60;;;;;;5070359;28;20488;-83
2022/06/11 07:25:43;;;;;;;5.13;2.23;;;23.40;92.70;;;;;;5070144;28;20819;-83
2022/06/11 07:28:18;;;;;;;3.40;2.40;;;23.50;92.90;;;;;;5072375;28;20862;-83
2022/06/11 07:30:47;;;;;;;3.83;2.57;;;23.70;92.80;;;;;;5072620;28;20475;-84
2022/06/11 07:33:22;;;;;;;4.27;2.40;;;24.20;91.80;;;;;;5073059;28;20459;-82
2022/06/11 07:35:50;;;;;;;3.17;2.00;;;23.80;92.00;;;;;;5072984;28;20474;-81
2022/06/11 07:38:18;;;;;;;2.13;1.90;;;23.70;91.80;;;;;;5066254;28;20455;-82
2022/06/11 07:40:45;;;;;;;2.90;1.70;;;23.80;91.90;;;;;;5077393;28;20968;-83
2022/06/11 07:43:12;;;;;;;2.93;2.20;;;24.10;91.70;;;;;;5076672;28;20444;-84
2022/06/11 07:45:41;;;;;;;2.23;2.03;;;24.30;91.40;;;;;;5075620;28;20949;-82
2022/06/11 07:48:09;;;;;;;2.40;1.67;;;24.30;91.00;;;;;;5073123;28;20458;-84
2022/06/11 07:50:40;;;;;;;2.43;2.23;;;24.40;90.60;;;;;;5082242;28;20459;-82
2022/06/11 07:53:13;;;;;;;1.97;1.73;;;25.40;87.70;;;;;;5074957;28;20486;-82
2022/06/11 07:55:43;;;;;;;2.50;1.90;;;25.40;86.30;;;;;;5071015;28;20479;-83
2022/06/11 07:58:11;;;;;;;2.90;1.93;;;24.70;87.40;;;;;;5077130;28;20443;-83
2022/06/11 08:00:44;;;;;;;2.47;2.00;;;24.30;89.40;;;;;;5077355;28;20471;-82
2022/06/11 08:03:11;;;;;;;3.73;2.13;;;24.20;90.00;;;;;;5074461;28;20464;-83
2022/06/11 08:05:41;;;;;;;2.10;1.50;;;24.60;89.90;;;;;;5079267;28;20458;-83
2022/06/11 08:08:08;;;;;;;2.90;2.40;;;25.20;87.20;;;;;;5076760;28;20461;-83
2022/06/11 08:10:39;;;;;;;2.53;2.30;;;25.10;87.10;;;;;;5076036;28;20463;-82
2022/06/11 08:13:07;;;;;;;3.00;2.40;;;25.20;87.20;;;;;;5077218;28;20448;-82
2022/06/11 08:15:35;;;;;;;5.13;2.10;;;25.70;85.60;;;;;;5089291;28;20533;-82
2022/06/11 08:18:02;;;;;;;2.60;2.20;;;25.80;83.80;;;;;;5088888;28;20432;-82
2022/06/11 08:20:35;;;;;;;2.17;1.90;;;25.60;83.40;;;;;;5087203;28;20452;-83
2022/06/11 08:23:02;;;;;;;2.77;2.20;;;25.80;82.80;;;;;;5076664;28;20432;-82
2022/06/11 08:25:30;;;;;;;2.13;1.80;;;25.70;82.90;;;;;;5084247;28;20893;-84
2022/06/11 08:27:57;;;;;;;4.67;2.20;;;25.80;82.80;;;;;;5084180;28;20447;-82
2022/06/11 08:30:27;;;;;;;4.20;2.47;;;25.50;83.20;;;;;;5085148;28;20483;-81
2022/06/11 08:32:53;;;;;;;2.80;2.03;;;25.10;84.80;;;;;;5068980;28;20448;-82
2022/06/11 08:35:23;;;;;;;2.63;1.90;;;25.50;85.10;;;;;;5079024;28;20482;-83
2022/06/11 08:37:51;;;;;;;3.83;2.33;;;26.20;82.20;;;;;;5078183;28;20447;-83
2022/06/11 08:40:40;;;;;;;3.20;1.90;;;25.70;83.10;;;;;;5075559;28;20451;-82
2022/06/11 08:43:27;;;;;;;3.20;2.23;;;25.30;84.80;;;;;;5072549;28;20431;-82
2022/06/11 08:46:08;;;;;;;3.77;2.30;;;25.30;85.90;;;;;;5073844;28;20475;-80
2022/06/11 08:48:55;;;;;;;2.57;1.90;;;25.30;85.80;;;;;;5070273;28;20491;-83
2022/06/11 08:51:45;;;;;;;3.93;2.50;;;25.30;85.70;;;;;;5065755;28;20509;-83
2022/06/11 08:54:15;;;;;;;3.27;1.93;;;25.20;86.50;;;;;;5076525;28;20485;-82
2022/06/11 08:56:49;;;;;;;2.97;1.93;;;25.50;86.50;;;;;;5076635;28;20566;-83
2022/06/11 08:59:57;;;;;;;1.97;1.83;;;27.30;79.20;;;;;;5070772;28;20455;-83
2022/06/11 09:02:32;;;;;;;1.77;1.67;;;27.10;77.40;;;;;;5049623;28;20460;-83
2022/06/11 09:05:26;;;;;;;3.53;2.37;;;27.50;77.50;;;;;;5073985;28;20455;-83
2022/06/11 09:08:26;;;;;;;3.53;2.33;;;28.10;74.70;;;;;;5081223;28;20435;-83
2022/06/11 09:11:14;;;;;;;2.30;1.83;;;27.40;75.40;;;;;;5077051;28;20471;-82
2022/06/11 09:14:12;;;;;;;2.90;2.13;;;26.60;78.20;;;;;;5080660;28;20439;-81
2022/06/11 09:17:23;;;;;;;2.60;2.00;;;26.00;80.50;;;;;;5074994;28;20479;-83
2022/06/11 09:20:24;;;;;;;2.07;1.93;;;25.50;83.00;;;;;;5041544;28;20448;-83
2022/06/11 09:23:02;;;;;;;2.50;2.07;;;25.10;84.20;;;;;;5079057;28;20447;-83
2022/06/11 09:25:50;;;;;;;4.47;2.50;;;25.50;84.10;;;;;;5079469;28;20450;-83
2022/06/11 09:28:41;;;;;;;1.80;1.70;;;25.60;83.20;;;;;;5078622;28;20442;-82
2022/06/11 09:31:14;;;;;;;3.40;2.20;;;25.20;82.80;;;;;;5080215;28;20463;-82
2022/06/11 09:33:56;;;;;;;2.93;2.17;;;24.90;82.60;;;;;;5081086;28;20428;-82
2022/06/11 09:36:40;;;;;;;2.53;2.33;;;24.80;83.50;;;;;;5081283;28;20455;-81
2022/06/11 09:39:37;;;;;;;4.73;1.90;;;24.70;85.40;;;;;;5081601;28;20453;-84
2022/06/11 09:42:44;;;;;;;4.20;2.70;;;24.70;86.00;;;;;;5080396;28;20436;-83
2022/06/11 09:45:20;;;;;;;6.03;3.80;;;24.70;88.30;;;;;;5079477;28;20440;-83
2022/06/11 09:48:02;;;;;;;4.40;4.00;;;25.20;90.00;;;;;;5091671;28;20430;-84
2022/06/11 09:50:47;;;;;;;3.23;2.93;;;25.20;90.20;;;;;;5098792;28;20466;-82
2022/06/11 09:53:39;;;;;;;3.13;2.83;;;26.00;87.30;;;;;;5097783;28;20447;-84
2022/06/11 09:56:31;;;;;;;3.30;2.87;;;26.30;85.90;;;;;;5082946;28;20483;-83
2022/06/11 09:59:28;;;;;;;2.63;2.43;;;26.50;85.20;;;;;;5076320;28;20456;-79
2022/06/11 10:02:07;;;;;;;3.83;2.43;;;26.90;83.00;;;;;;5077311;28;21004;-81
2022/06/11 10:04:39;;;;;;;2.93;2.10;;;27.20;81.80;;;;;;5077145;28;20451;-84
2022/06/11 10:07:14;;;;;;;3.57;2.30;;;27.00;81.40;;;;;;5073532;28;20451;-81
2022/06/11 10:09:45;;;;;;;2.80;2.57;;;26.70;81.80;;;;;;5071143;28;20451;-83
2022/06/11 10:12:26;;;;;;;3.43;2.43;;;27.30;80.20;;;;;;5080239;28;20463;-84
2022/06/11 10:15:08;;;;;;;3.43;2.63;;;27.50;80.30;;;;;;5085218;28;20460;-83
2022/06/11 10:17:49;;;;;;;3.90;2.33;;;28.20;76.50;;;;;;5074799;28;20467;-84
2022/06/11 10:20:25;;;;;;;2.77;2.50;;;29.00;75.00;;;;;;5071013;28;20466;-83
2022/06/11 10:23:03;;;;;;;4.17;2.83;;;31.10;65.90;;;;;;5074447;28;20447;-84
2022/06/11 10:25:42;;;;;;;4.67;2.53;;;30.30;65.80;;;;;;5074142;28;20506;-83
2022/06/11 10:28:15;;;;;;;5.07;3.00;;;29.20;69.10;;;;;;5067320;28;20467;-82
2022/06/11 10:30:54;;;;;;;3.90;2.93;;;28.50;71.10;;;;;;5071905;28;20541;-82
2022/06/11 10:33:29;;;;;;;3.20;2.43;;;27.40;74.60;;;;;;5073998;28;20435;-84
2022/06/11 10:36:18;;;;;;;5.20;2.90;;;27.00;76.60;;;;;;5079747;28;20470;-84
2022/06/11 10:39:10;;;;;;;3.70;3.10;;;27.20;78.40;;;;;;5070086;28;20508;-82
2022/06/11 10:42:13;;;;;;;5.63;3.70;;;27.80;74.60;;;;;;5075168;28;20481;-84
2022/06/11 10:44:47;;;;;;;3.00;2.70;;;27.10;76.30;;;;;;5075430;28;20923;-84
2022/06/11 10:47:34;;;;;;;3.93;2.83;;;26.50;78.70;;;;;;5077605;28;20897;-84
2022/06/11 10:50:34;;;;;;;2.70;2.50;;;26.80;79.60;;;;;;5069328;28;20455;-84
2022/06/11 10:53:21;;;;;;;5.00;2.97;;;27.80;75.50;;;;;;5088150;28;20443;-84
2022/06/11 10:56:12;;;;;;;3.43;2.50;;;27.80;74.60;;;;;;5090126;28;20455;-83
2022/06/11 10:59:01;;;;;;;3.80;2.47;;;27.20;74.80;;;;;;5077885;28;20499;-84
2022/06/11 11:01:42;;;;;;;4.50;2.70;;;26.60;77.10;;;;;;5080181;28;20451;-84
2022/06/11 11:04:14;;;;;;;2.80;2.43;;;27.80;75.50;;;;;;5091741;28;20432;-83
2022/06/11 11:06:42;;;;;;;2.87;2.67;;;28.50;73.10;;;;;;5092117;28;20447;-84
2022/06/11 11:09:23;;;;;;;2.93;2.57;;;29.90;69.00;;;;;;5094334;28;20515;-84
2022/06/11 11:11:55;;;;;;;3.33;2.60;;;30.50;65.40;;;;;;5081627;28;20466;-83
2022/06/11 11:14:41;;;;;;;3.27;2.80;;;30.10;65.10;;;;;;5059359;28;20444;-84
2022/06/11 11:17:21;;;;;;;4.03;3.00;;;29.10;67.70;;;;;;5062025;28;20470;-84
2022/06/11 11:22:54;;;;;;;2.33;1.90;;;28.70;69.30;;;;;;5074519;28;20455;-84
2022/06/11 11:25:29;;;;;;;2.23;2.03;;;28.80;67.70;;;;;;5072503;28;20444;-82
2022/06/11 11:27:57;;;;;;;2.13;1.93;;;29.30;66.40;;;;;;5084988;28;20461;-82
2022/06/11 11:30:38;;;;;;;2.30;2.10;;;30.00;65.00;;;;;;5080257;28;20489;-85
2022/06/11 11:33:26;;;;;;;2.30;2.20;;;30.30;62.90;;;;;;5076148;28;20459;-83
2022/06/11 11:36:09;;;;;;;2.50;2.30;;;30.20;63.30;;;;;;5073879;28;20497;-84
2022/06/11 11:38:37;;;;;;;4.23;2.13;;;30.40;62.60;;;;;;5076933;28;20443;-86
2022/06/11 11:41:04;;;;;;;2.40;2.20;;;30.00;63.70;;;;;;5076795;28;20966;-86
2022/06/11 11:43:36;;;;;;;4.27;2.30;;;29.50;64.60;;;;;;5077141;28;20519;-87
2022/06/11 11:46:16;;;;;;;2.50;2.03;;;29.30;64.80;;;;;;5079178;28;20452;-83
2022/06/11 11:48:46;;;;;;;4.33;2.40;;;30.20;64.40;;;;;;5079650;28;20458;-84
2022/06/11 11:51:30;;;;;;;2.50;2.30;;;31.90;58.30;;;;;;5075146;28;20471;-84
2022/06/11 11:54:17;;;;;;;2.30;2.10;;;31.70;57.40;;;;;;5089895;28;20451;-84
2022/06/11 11:57:01;;;;;;;4.60;3.00;;;31.10;58.70;;;;;;5074002;28;21361;-84
2022/06/11 11:59:49;;;;;;;2.37;2.17;;;30.50;59.70;;;;;;5071025;28;20474;-83
2022/06/11 12:02:46;;;;;;;3.00;2.20;;;29.80;61.00;;;;;;5075043;28;20956;-83
2022/06/11 12:05:23;;;;;;;2.50;1.87;;;29.50;62.20;;;;;;5071460;28;20465;-83
2022/06/11 12:07:52;;;;;;;2.30;2.00;;;29.40;62.90;;;;;;5076004;28;20459;-82
2022/06/11 12:10:34;;;;;;;2.40;2.20;;;29.00;64.20;;;;;;5070407;28;20470;-81
2022/06/11 12:13:02;;;;;;;3.70;2.17;;;28.80;64.90;;;;;;5086162;28;20504;-84
2022/06/11 12:15:33;;;;;;;2.50;2.20;;;28.90;65.80;;;;;;5084106;28;20454;-85
2022/06/11 12:18:04;;;;;;;5.70;2.40;;;29.20;64.50;;;;;;5072816;28;21056;-84
2022/06/11 12:20:48;;;;;;;3.47;2.63;;;29.80;63.30;;;;;;5075692;28;20481;-84
2022/06/11 12:23:37;;;;;;;2.50;2.30;;;29.40;63.20;;;;;;5076891;28;20447;-83
2022/06/11 12:26:13;;;;;;;2.90;2.60;;;28.90;64.60;;;;;;5073500;28;20467;-84
2022/06/11 12:28:58;;;;;;;2.63;2.50;;;28.70;65.80;;;;;;5077109;28;20447;-84
2022/06/11 12:31:28;;;;;;;3.20;3.00;;;28.60;65.40;;;;;;5073082;28;20482;-84
2022/06/11 12:33:55;;;;;;;2.90;2.70;;;28.70;65.80;;;;;;5070220;28;20455;-83
2022/06/11 12:36:44;;;;;;;3.63;3.33;;;29.00;64.50;;;;;;5068033;28;20467;-85
2022/06/11 12:39:34;;;;;;;2.60;2.40;;;29.30;63.20;;;;;;5084320;28;20479;-84
2022/06/11 12:42:32;;;;;;;3.00;2.70;;;28.70;63.40;;;;;;5082715;28;20475;-83
2022/06/11 12:45:22;;;;;;;2.80;2.60;;;28.40;64.40;;;;;;5081629;28;20454;-81
2022/06/11 12:47:59;;;;;;;3.40;3.10;;;28.70;65.20;;;;;;5077111;28;20547;-83
2022/06/11 12:51:10;;;;;;;3.43;3.10;;;28.70;65.00;;;;;;5087577;28;20491;-85
2022/06/11 12:53:47;;;;;;;2.93;2.73;;;28.60;64.80;;;;;;5077033;28;20459;-84
2022/06/11 12:56:17;;;;;;;3.70;2.57;;;28.60;65.00;;;;;;5086555;28;20515;-84
2022/06/11 12:59:07;;;;;;;3.03;2.83;;;28.60;65.40;;;;;;5081115;28;20451;-86
2022/06/11 13:01:52;;;;;;;3.93;3.47;;;28.50;66.30;;;;;;5073425;28;20889;-84
2022/06/11 13:04:37;;;;;;;4.00;3.20;;;28.40;65.40;;;;;;5079416;28;20459;-84
2022/06/11 13:07:34;;;;;;;3.63;3.03;;;28.40;65.70;;;;;;5075748;28;20455;-83
2022/06/11 13:10:13;;;;;;;4.43;3.70;;;28.60;65.30;;;;;;5078743;28;20444;-85
2022/06/11 13:12:56;;;;;;;4.10;3.80;;;28.50;65.80;;;;;;5076489;28;20451;-83
2022/06/11 13:15:55;;;;;;;3.97;3.00;;;28.60;65.90;;;;;;5074334;28;20467;-85
2022/06/11 13:18:55;;;;;;;3.87;3.50;;;28.40;65.30;;;;;;5075612;28;20475;-84
2022/06/11 13:21:30;;;;;;;3.50;3.20;;;28.30;65.30;;;;;;5066732;28;20982;-84
2022/06/11 13:24:31;;;;;;;3.13;2.90;;;28.40;64.90;;;;;;5074429;28;20443;-86
2022/06/11 13:27:15;;;;;;;3.33;3.03;;;28.60;64.80;;;;;;5072688;28;20455;-84
2022/06/11 13:30:11;;;;;;;3.43;3.13;;;28.70;63.80;;;;;;5077798;28;20806;-85
2022/06/11 13:32:50;;;;;;;2.80;2.60;;;28.80;64.40;;;;;;5074425;28;20968;-85
2022/06/11 13:35:46;;;;;;;4.67;3.20;;;28.60;64.30;;;;;;5077781;28;20545;-85
2022/06/11 13:39:05;;;;;;;3.00;2.70;;;29.20;64.20;;;;;;5075396;28;20471;-84